Time;durP1;ratioP1;P1;durP2;ratioP2;P2;SDS_P1;SDS_P2;PMS_P1;PMS_P2;Temp;Humidity;BMP_temperature;BMP_pressure;BME280_temperature;BME280_humidity;BME280_pressure;Samples;Min_cycle;Max_cycle;Signal;HPM_P1;HPM_P2
2021/01/31 00:00:39;;;;;;;35.67;20.43;;;10.20;99.90;;;;;;4992480;28;20267;-82
2021/01/31 00:03:09;;;;;;;28.33;17.43;;;10.20;99.90;;;;;;4992160;28;20213;-82
2021/01/31 00:05:35;;;;;;;46.93;30.03;;;10.20;99.90;;;;;;4992440;28;20635;-82
2021/01/31 00:08:02;;;;;;;20.57;12.23;;;10.20;99.90;;;;;;4973996;28;20204;-81
2021/01/31 00:10:30;;;;;;;27.87;18.10;;;10.20;99.90;;;;;;4985176;28;20207;-80
2021/01/31 00:12:58;;;;;;;13.43;8.17;;;10.30;99.90;;;;;;4984677;28;20209;-80
2021/01/31 00:15:28;;;;;;;13.10;8.43;;;10.30;99.90;;;;;;4994655;28;20205;-82
2021/01/31 00:17:55;;;;;;;12.27;6.27;;;10.30;99.90;;;;;;4995333;28;20299;-81
2021/01/31 00:20:24;;;;;;;51.63;31.90;;;10.30;99.90;;;;;;4985596;28;20266;-82
2021/01/31 00:22:51;;;;;;;12.97;8.63;;;10.30;99.90;;;;;;4978944;28;20202;-82
2021/01/31 00:25:18;;;;;;;11.23;7.00;;;10.30;99.90;;;;;;4975301;28;20233;-82
2021/01/31 00:27:45;;;;;;;25.37;15.57;;;10.40;99.90;;;;;;4976045;28;20301;-81
2021/01/31 00:30:16;;;;;;;25.13;15.30;;;10.40;99.90;;;;;;4975902;28;20588;-82
2021/01/31 00:32:42;;;;;;;18.23;12.13;;;10.40;99.90;;;;;;4988021;28;20674;-82
2021/01/31 00:35:11;;;;;;;30.17;19.53;;;10.40;99.90;;;;;;4994742;28;20241;-82
2021/01/31 00:37:37;;;;;;;65.53;42.77;;;10.40;99.90;;;;;;4989908;28;20281;-82
2021/01/31 00:40:06;;;;;;;22.53;13.83;;;10.40;99.90;;;;;;4993678;28;20253;-82
2021/01/31 00:42:32;;;;;;;32.87;19.57;;;10.40;99.90;;;;;;4988139;28;20298;-81
2021/01/31 00:44:59;;;;;;;29.93;18.23;;;10.40;99.90;;;;;;4975434;28;20684;-82
2021/01/31 00:47:25;;;;;;;31.53;18.63;;;10.40;99.90;;;;;;4975604;28;20198;-82
2021/01/31 00:49:52;;;;;;;38.43;21.63;;;10.30;99.90;;;;;;4975526;28;20194;-81
2021/01/31 00:52:21;;;;;;;34.00;18.77;;;10.30;99.90;;;;;;4992513;28;20680;-82
2021/01/31 00:54:48;;;;;;;32.07;18.33;;;10.30;99.90;;;;;;4993512;28;20710;-82
2021/01/31 00:57:14;;;;;;;30.77;17.90;;;10.30;99.90;;;;;;4991223;28;21791;-81
2021/01/31 00:59:41;;;;;;;37.80;20.83;;;10.30;99.90;;;;;;4975442;28;20233;-82
2021/01/31 01:02:11;;;;;;;32.93;20.00;;;10.30;99.90;;;;;;4975401;28;20218;-81
2021/01/31 01:04:37;;;;;;;38.27;22.97;;;10.30;99.90;;;;;;4975560;28;20236;-82
2021/01/31 01:07:04;;;;;;;34.43;22.27;;;10.20;99.90;;;;;;4980958;28;20198;-81
2021/01/31 01:09:31;;;;;;;24.40;14.67;;;10.20;99.90;;;;;;4975598;28;20638;-81
2021/01/31 01:11:57;;;;;;;21.13;10.83;;;10.20;99.90;;;;;;4994400;28;20236;-81
2021/01/31 01:14:24;;;;;;;28.17;15.57;;;10.20;99.90;;;;;;4967714;28;20205;-81
2021/01/31 01:16:50;;;;;;;13.67;8.20;;;10.20;99.90;;;;;;4975266;28;20206;-81
2021/01/31 01:19:17;;;;;;;52.90;33.83;;;10.20;99.90;;;;;;4990399;28;20639;-82
2021/01/31 01:21:43;;;;;;;29.63;17.97;;;10.20;99.90;;;;;;4973874;28;20202;-81
2021/01/31 01:24:10;;;;;;;26.07;17.67;;;10.20;99.90;;;;;;4974559;28;20197;-81
2021/01/31 01:26:37;;;;;;;17.13;10.43;;;10.20;99.90;;;;;;4974972;28;20580;-82
2021/01/31 01:29:04;;;;;;;22.97;11.57;;;10.20;99.90;;;;;;4990506;28;20204;-81
2021/01/31 01:31:30;;;;;;;34.43;15.83;;;10.20;99.90;;;;;;4990329;28;20195;-81
2021/01/31 01:33:56;;;;;;;57.03;27.80;;;10.20;99.90;;;;;;4974822;28;20239;-82
2021/01/31 01:36:23;;;;;;;17.57;10.43;;;10.20;99.90;;;;;;4974179;28;20245;-81
2021/01/31 01:38:49;;;;;;;15.03;7.10;;;10.20;99.90;;;;;;4974687;28;20200;-82
2021/01/31 01:41:16;;;;;;;13.60;8.10;;;10.20;99.90;;;;;;4974613;28;20240;-81
2021/01/31 01:43:43;;;;;;;15.80;8.43;;;10.20;99.90;;;;;;4974722;28;20202;-81
2021/01/31 01:46:27;;;;;;;20.17;12.37;;;10.20;99.90;;;;;;4974938;28;20202;-82
2021/01/31 01:49:00;;;;;;;16.97;8.43;;;10.20;99.90;;;;;;4974732;28;20229;-81
2021/01/31 01:51:31;;;;;;;11.50;7.40;;;10.20;99.90;;;;;;4973970;28;20202;-82
2021/01/31 01:54:00;;;;;;;16.07;8.10;;;10.20;99.90;;;;;;4981635;28;20601;-81
2021/01/31 01:56:36;;;;;;;12.87;6.90;;;10.20;99.90;;;;;;4993626;28;20256;-80
2021/01/31 01:59:04;;;;;;;16.33;9.33;;;10.20;99.90;;;;;;4993707;28;20236;-81
2021/01/31 02:01:33;;;;;;;10.20;6.83;;;10.20;99.90;;;;;;4990872;28;20230;-81
2021/01/31 02:04:01;;;;;;;10.20;6.47;;;10.20;99.90;;;;;;4993609;28;20571;-81
2021/01/31 02:06:30;;;;;;;11.50;6.57;;;10.20;99.90;;;;;;4978021;28;20214;-82
2021/01/31 02:08:59;;;;;;;13.47;9.03;;;10.20;99.90;;;;;;4974295;28;20229;-81
2021/01/31 02:11:26;;;;;;;10.43;6.40;;;10.20;99.90;;;;;;4986620;28;20213;-81
2021/01/31 02:13:56;;;;;;;10.47;6.97;;;10.20;99.90;;;;;;4976015;28;20230;-81
2021/01/31 02:16:30;;;;;;;9.53;5.00;;;10.20;99.90;;;;;;4982434;28;20210;-81
2021/01/31 02:19:07;;;;;;;6.70;4.70;;;10.20;99.90;;;;;;4986365;28;20232;-81
2021/01/31 02:21:59;;;;;;;7.67;4.47;;;10.20;99.90;;;;;;4974391;28;20241;-81
2021/01/31 02:25:04;;;;;;;9.83;4.87;;;10.20;99.90;;;;;;4970162;28;20205;-81
2021/01/31 02:28:03;;;;;;;6.20;4.20;;;10.20;99.90;;;;;;4972475;28;20711;-81
2021/01/31 02:30:57;;;;;;;7.87;4.63;;;10.20;99.90;;;;;;4973623;28;20194;-82
2021/01/31 02:33:53;;;;;;;5.40;4.10;;;10.20;99.90;;;;;;4973519;28;20367;-81
2021/01/31 02:36:28;;;;;;;7.40;4.47;;;10.10;99.90;;;;;;4963930;28;20264;-81
2021/01/31 02:39:03;;;;;;;7.27;4.53;;;10.10;99.90;;;;;;4993003;28;20675;-81
2021/01/31 02:41:34;;;;;;;5.73;4.27;;;10.10;99.90;;;;;;4987672;28;20257;-81
2021/01/31 02:44:06;;;;;;;6.00;4.03;;;10.10;99.90;;;;;;4973434;28;20244;-82
2021/01/31 02:46:40;;;;;;;6.17;4.20;;;10.10;99.90;;;;;;4973390;28;20229;-81
2021/01/31 02:49:13;;;;;;;5.73;4.00;;;10.10;99.90;;;;;;4973474;28;20242;-81
2021/01/31 02:51:51;;;;;;;7.40;3.80;;;10.10;99.90;;;;;;4988085;28;20305;-81
2021/01/31 02:54:22;;;;;;;5.10;3.90;;;10.00;99.90;;;;;;4992822;28;20694;-81
2021/01/31 02:56:55;;;;;;;6.10;3.87;;;10.00;99.90;;;;;;4990121;28;20212;-81
2021/01/31 02:59:25;;;;;;;9.57;4.70;;;10.00;99.90;;;;;;4974589;28;20210;-81
2021/01/31 03:01:56;;;;;;;8.87;4.87;;;10.00;99.90;;;;;;4973008;28;20230;-81
2021/01/31 03:04:30;;;;;;;10.27;4.40;;;10.00;99.90;;;;;;4985856;28;20207;-81
2021/01/31 03:07:01;;;;;;;8.27;4.10;;;9.90;99.90;;;;;;4992249;28;20211;-81
2021/01/31 03:09:33;;;;;;;6.30;4.00;;;9.80;99.90;;;;;;4991465;28;20238;-81
2021/01/31 03:12:02;;;;;;;7.10;4.10;;;9.70;99.90;;;;;;4992491;28;20240;-82
2021/01/31 03:14:35;;;;;;;7.57;3.97;;;9.50;99.90;;;;;;4980544;28;20209;-81
2021/01/31 03:17:05;;;;;;;7.17;3.80;;;9.40;99.90;;;;;;4972857;28;20209;-81
2021/01/31 03:19:39;;;;;;;9.13;4.30;;;9.20;99.90;;;;;;4972786;28;20709;-81
2021/01/31 03:22:13;;;;;;;7.90;4.87;;;9.00;99.90;;;;;;4990134;28;20715;-81
2021/01/31 03:24:44;;;;;;;7.83;4.10;;;8.90;99.90;;;;;;4990995;28;20690;-81
2021/01/31 03:27:15;;;;;;;5.47;3.67;;;8.90;99.90;;;;;;4992612;28;20244;-81
2021/01/31 03:29:42;;;;;;;6.00;3.90;;;8.90;99.90;;;;;;4992642;28;20574;-81
2021/01/31 03:32:11;;;;;;;7.00;3.73;;;9.00;99.90;;;;;;4992468;28;20246;-81
2021/01/31 03:34:50;;;;;;;7.03;4.07;;;9.20;99.90;;;;;;4991949;28;20263;-81
2021/01/31 03:37:19;;;;;;;5.70;4.20;;;9.30;99.90;;;;;;4992071;28;20225;-81
2021/01/31 03:39:49;;;;;;;8.23;4.77;;;9.40;99.90;;;;;;4992203;28;20278;-81
2021/01/31 03:42:16;;;;;;;6.93;4.37;;;9.40;99.90;;;;;;4992737;28;20200;-81
2021/01/31 03:44:43;;;;;;;5.27;4.20;;;9.50;99.90;;;;;;4993490;28;20355;-81
2021/01/31 03:47:22;;;;;;;8.00;4.70;;;9.50;99.90;;;;;;4995919;28;20340;-81
2021/01/31 03:49:54;;;;;;;6.30;4.37;;;9.50;99.90;;;;;;4996081;28;20213;-81
2021/01/31 03:52:21;;;;;;;6.93;4.60;;;9.50;99.90;;;;;;4996432;28;20293;-81
2021/01/31 03:54:48;;;;;;;7.47;4.10;;;9.60;99.90;;;;;;4987021;28;20228;-81
2021/01/31 03:57:19;;;;;;;6.73;4.73;;;9.60;99.90;;;;;;4976402;28;20703;-82
2021/01/31 03:59:51;;;;;;;6.50;4.23;;;9.60;99.90;;;;;;4979120;28;20223;-81
2021/01/31 04:02:23;;;;;;;6.87;4.33;;;9.60;99.90;;;;;;4976171;28;20197;-82
2021/01/31 04:04:50;;;;;;;7.80;4.30;;;9.60;99.90;;;;;;4988889;28;20202;-81
2021/01/31 04:07:21;;;;;;;7.57;4.63;;;9.60;99.90;;;;;;4995588;28;20202;-81
2021/01/31 04:09:48;;;;;;;6.77;4.47;;;9.60;99.90;;;;;;4989637;28;20201;-82
2021/01/31 04:12:21;;;;;;;7.33;4.10;;;9.60;99.90;;;;;;4995875;28;20244;-82
2021/01/31 04:14:55;;;;;;;7.20;4.20;;;9.60;99.90;;;;;;4978569;28;20201;-82
2021/01/31 04:17:21;;;;;;;7.53;4.47;;;9.70;99.90;;;;;;4975863;28;20249;-81
2021/01/31 04:19:48;;;;;;;7.63;4.10;;;9.70;99.90;;;;;;4983804;28;20698;-81
2021/01/31 04:22:15;;;;;;;6.33;4.23;;;9.70;99.90;;;;;;4995665;28;20200;-81
2021/01/31 04:24:42;;;;;;;9.00;4.60;;;9.70;99.90;;;;;;4995565;28;20736;-81
2021/01/31 04:27:08;;;;;;;7.17;4.63;;;9.70;99.90;;;;;;4995268;28;20285;-81
2021/01/31 04:29:36;;;;;;;6.67;4.77;;;9.70;99.90;;;;;;4995580;28;20232;-82
2021/01/31 04:32:03;;;;;;;7.50;4.70;;;9.70;99.90;;;;;;4994159;28;20228;-81
2021/01/31 04:34:30;;;;;;;9.07;4.73;;;9.70;99.90;;;;;;4993950;28;20241;-82
2021/01/31 04:36:56;;;;;;;6.97;4.30;;;9.70;99.90;;;;;;4995104;28;20202;-81
2021/01/31 04:39:24;;;;;;;7.30;4.53;;;9.70;99.90;;;;;;4995097;28;20666;-82
2021/01/31 04:41:51;;;;;;;5.67;4.47;;;9.70;99.90;;;;;;4995111;28;20230;-81
2021/01/31 04:44:20;;;;;;;5.93;4.50;;;9.70;99.90;;;;;;4995132;28;20247;-81
2021/01/31 04:46:50;;;;;;;5.70;4.27;;;9.70;99.90;;;;;;4994987;28;20215;-81
2021/01/31 04:49:43;;;;;;;5.37;3.40;;;9.70;99.90;;;;;;4995179;28;20205;-81
2021/01/31 04:52:27;;;;;;;5.13;3.53;;;9.70;99.90;;;;;;4983799;28;20230;-82
2021/01/31 04:55:08;;;;;;;4.10;3.37;;;9.70;99.90;;;;;;4989851;28;20244;-82
2021/01/31 04:57:40;;;;;;;5.60;3.33;;;9.70;99.90;;;;;;4980766;28;20236;-82
2021/01/31 05:00:09;;;;;;;5.50;3.70;;;9.60;99.90;;;;;;4975041;28;20258;-81
2021/01/31 05:02:40;;;;;;;6.57;3.87;;;9.70;99.90;;;;;;4975267;28;20615;-81
2021/01/31 05:05:18;;;;;;;7.17;4.13;;;9.60;99.90;;;;;;4975380;28;20210;-81
2021/01/31 05:07:52;;;;;;;7.73;4.10;;;9.60;99.90;;;;;;4975126;28;20641;-81
2021/01/31 05:10:19;;;;;;;6.70;4.53;;;9.60;99.90;;;;;;4977978;28;20215;-81
2021/01/31 05:13:06;;;;;;;7.33;4.50;;;9.70;99.90;;;;;;4994591;28;20206;-81
2021/01/31 05:15:38;;;;;;;5.57;4.27;;;9.70;99.90;;;;;;4994149;28;20275;-81
2021/01/31 05:18:06;;;;;;;8.30;5.13;;;9.60;99.90;;;;;;4994167;28;20230;-81
2021/01/31 05:20:36;;;;;;;5.93;4.93;;;9.60;99.90;;;;;;4994415;28;20234;-81
2021/01/31 05:23:04;;;;;;;7.03;4.80;;;9.60;99.90;;;;;;4994214;28;20572;-81
2021/01/31 05:25:36;;;;;;;9.03;5.40;;;9.60;99.90;;;;;;4974929;28;20209;-81
2021/01/31 05:28:05;;;;;;;8.40;5.70;;;9.70;99.90;;;;;;4974931;28;20206;-82
2021/01/31 05:30:43;;;;;;;8.43;5.70;;;9.70;99.90;;;;;;4974642;28;20202;-81
2021/01/31 05:33:21;;;;;;;7.97;5.97;;;9.70;99.90;;;;;;4978140;28;20256;-81
2021/01/31 05:35:49;;;;;;;8.40;6.10;;;9.70;99.90;;;;;;4987483;28;20264;-81
2021/01/31 05:38:34;;;;;;;7.77;5.63;;;9.70;99.90;;;;;;4974603;28;20230;-81
2021/01/31 05:41:39;;;;;;;8.00;6.50;;;9.70;99.90;;;;;;4974109;28;20711;-81
2021/01/31 05:44:09;;;;;;;8.07;5.77;;;9.70;99.90;;;;;;4989334;28;20237;-81
2021/01/31 05:46:41;;;;;;;8.77;6.30;;;9.70;99.90;;;;;;4993268;28;20206;-82
2021/01/31 05:49:11;;;;;;;9.00;6.47;;;9.70;99.90;;;;;;4993685;28;20240;-81
2021/01/31 05:51:39;;;;;;;8.03;5.60;;;9.70;99.90;;;;;;4993730;28;20236;-81
2021/01/31 05:54:20;;;;;;;8.80;6.47;;;9.60;99.90;;;;;;4993788;28;20269;-82
2021/01/31 05:56:48;;;;;;;9.73;6.87;;;9.60;99.90;;;;;;4993807;28;20248;-82
2021/01/31 05:59:15;;;;;;;8.73;6.10;;;9.70;99.90;;;;;;4982566;28;20210;-81
2021/01/31 06:01:52;;;;;;;8.23;6.43;;;9.60;99.90;;;;;;4974398;28;20664;-81
2021/01/31 06:04:20;;;;;;;9.03;6.40;;;9.70;99.90;;;;;;4983994;28;20251;-81
2021/01/31 06:06:47;;;;;;;8.23;6.00;;;9.70;99.90;;;;;;4993576;28;20213;-81
2021/01/31 06:09:18;;;;;;;9.63;6.17;;;9.70;99.90;;;;;;4976110;28;20285;-82
2021/01/31 06:11:45;;;;;;;9.47;6.47;;;9.60;99.90;;;;;;4974285;28;20287;-81
2021/01/31 06:14:27;;;;;;;9.03;6.40;;;9.60;99.90;;;;;;4989970;28;20700;-81
2021/01/31 06:17:01;;;;;;;9.27;6.00;;;9.60;99.90;;;;;;4986899;28;20718;-81
2021/01/31 06:19:33;;;;;;;8.63;6.00;;;9.60;99.90;;;;;;4973855;28;20222;-82
2021/01/31 06:22:00;;;;;;;8.07;6.20;;;9.60;99.90;;;;;;4975893;28;20722;-82
2021/01/31 06:24:31;;;;;;;10.33;6.50;;;9.60;99.90;;;;;;4974288;28;20206;-81
2021/01/31 06:26:59;;;;;;;9.37;6.60;;;9.60;99.90;;;;;;4973683;28;20199;-81
2021/01/31 06:29:39;;;;;;;10.37;6.30;;;9.60;99.90;;;;;;4973307;28;20251;-81
2021/01/31 06:32:11;;;;;;;8.13;6.07;;;9.60;99.90;;;;;;4973754;28;20236;-81
2021/01/31 06:34:48;;;;;;;9.30;6.50;;;9.60;99.90;;;;;;4973577;28;20272;-81
2021/01/31 06:37:44;;;;;;;9.80;7.23;;;9.60;99.90;;;;;;4973347;28;20234;-82
2021/01/31 06:40:22;;;;;;;8.83;7.07;;;9.50;99.90;;;;;;4973488;28;20265;-81
2021/01/31 06:42:58;;;;;;;12.17;6.97;;;9.50;99.90;;;;;;4973585;28;20669;-81
2021/01/31 06:45:43;;;;;;;8.87;6.80;;;9.50;99.90;;;;;;4973262;28;20196;-82
2021/01/31 06:48:25;;;;;;;8.60;6.70;;;9.50;99.90;;;;;;4972716;28;20301;-81
2021/01/31 06:51:20;;;;;;;9.30;6.67;;;9.50;99.90;;;;;;4973640;28;20195;-82
2021/01/31 06:54:04;;;;;;;11.60;7.37;;;9.60;99.90;;;;;;4973358;28;20294;-81
2021/01/31 06:56:50;;;;;;;9.77;7.80;;;9.60;99.90;;;;;;4973186;28;20194;-81
2021/01/31 06:59:50;;;;;;;9.30;7.53;;;9.60;99.90;;;;;;4973234;28;20216;-81
2021/01/31 07:02:52;;;;;;;10.20;7.33;;;9.60;99.90;;;;;;4894976;29;20241;-81
2021/01/31 07:05:33;;;;;;;11.37;7.30;;;9.50;99.90;;;;;;4894845;29;20711;-81
2021/01/31 07:08:29;;;;;;;10.57;7.43;;;9.60;99.90;;;;;;4894949;29;20251;-82
2021/01/31 07:11:17;;;;;;;11.30;8.17;;;9.60;99.90;;;;;;4894451;29;20246;-82
2021/01/31 07:13:53;;;;;;;13.17;9.17;;;9.60;99.90;;;;;;4894656;29;20246;-81
2021/01/31 07:16:34;;;;;;;12.60;8.77;;;9.60;99.90;;;;;;4917071;29;20208;-81
2021/01/31 07:19:07;;;;;;;11.33;8.80;;;9.60;99.90;;;;;;4928556;29;20199;-81
2021/01/31 07:21:39;;;;;;;14.47;9.13;;;9.60;99.90;;;;;;4936126;29;20255;-81
2021/01/31 07:24:12;;;;;;;16.03;9.57;;;9.70;99.90;;;;;;4936645;29;20663;-82
2021/01/31 07:26:43;;;;;;;14.40;9.30;;;9.60;99.90;;;;;;4928905;29;20746;-82
2021/01/31 07:29:15;;;;;;;12.57;9.00;;;9.60;99.90;;;;;;4917455;29;20235;-81
2021/01/31 07:31:47;;;;;;;13.83;8.67;;;9.60;99.90;;;;;;4917086;29;20279;-81
2021/01/31 07:34:20;;;;;;;13.67;9.20;;;9.60;99.90;;;;;;4917155;29;20678;-81
2021/01/31 07:37:09;;;;;;;14.80;9.17;;;9.60;99.90;;;;;;4917387;29;20207;-82
2021/01/31 07:39:45;;;;;;;16.97;10.10;;;9.60;99.90;;;;;;4951679;28;20640;-81
2021/01/31 07:42:12;;;;;;;18.03;10.80;;;9.70;99.90;;;;;;4977175;28;20293;-81
2021/01/31 07:44:40;;;;;;;17.13;10.80;;;9.70;99.90;;;;;;4976810;28;20296;-84
2021/01/31 07:47:07;;;;;;;16.93;11.30;;;9.60;99.90;;;;;;4977569;28;20248;-89
2021/01/31 07:50:17;;;;;;;17.97;11.03;;;9.60;99.90;;;;;;4977238;28;20206;-85
2021/01/31 07:52:55;;;;;;;16.27;10.90;;;9.70;99.90;;;;;;4957510;28;20202;-87
2021/01/31 07:55:41;;;;;;;18.53;10.40;;;9.70;99.90;;;;;;4976912;28;20660;-86
2021/01/31 07:58:28;;;;;;;16.10;10.63;;;9.70;99.90;;;;;;4976858;28;20202;-84
2021/01/31 08:04:58;;;;;;;;;;;;;;;;;;;;;
2021/01/31 08:11:15;;;;;;;18.97;11.53;;;9.70;99.90;;;;;;4977095;28;20243;-80
2021/01/31 08:14:09;;;;;;;18.10;10.77;;;9.70;99.90;;;;;;4989462;28;20198;-79
2021/01/31 08:16:56;;;;;;;21.53;12.40;;;9.70;99.90;;;;;;4991174;28;20642;-80
2021/01/31 08:19:40;;;;;;;17.47;11.30;;;9.70;99.90;;;;;;4995970;28;20193;-81
2021/01/31 08:22:45;;;;;;;23.23;13.40;;;9.70;99.90;;;;;;4995055;28;20254;-80
2021/01/31 08:32:05;;;;;;;25.03;14.30;;;9.80;99.90;;;;;;4903509;29;20736;-80
2021/01/31 08:34:55;;;;;;;26.67;15.10;;;9.80;99.90;;;;;;4916107;29;20800;-81
2021/01/31 08:37:23;;;;;;;26.60;15.77;;;9.70;99.90;;;;;;4934374;29;20270;-79
2021/01/31 08:39:51;;;;;;;26.57;16.53;;;9.80;99.90;;;;;;4935156;29;20271;-79
2021/01/31 08:42:18;;;;;;;25.33;15.00;;;9.70;99.90;;;;;;4934876;29;20205;-78
2021/01/31 08:44:55;;;;;;;27.13;14.97;;;9.80;99.90;;;;;;4932602;29;20247;-79
2021/01/31 08:47:22;;;;;;;23.30;14.23;;;9.80;99.90;;;;;;4923691;29;20209;-79
2021/01/31 08:49:59;;;;;;;24.17;13.97;;;9.80;99.90;;;;;;4927598;29;20712;-79
2021/01/31 08:52:26;;;;;;;21.60;13.53;;;9.80;99.90;;;;;;4934508;29;20207;-79
2021/01/31 08:55:02;;;;;;;22.97;13.77;;;9.90;99.90;;;;;;4934890;29;20208;-79
2021/01/31 08:57:29;;;;;;;22.70;13.53;;;9.90;99.90;;;;;;4928690;29;20264;-79
2021/01/31 09:00:00;;;;;;;22.37;14.20;;;9.90;99.90;;;;;;4919345;29;20240;-79
2021/01/31 09:02:28;;;;;;;23.30;14.63;;;9.90;99.90;;;;;;4916813;29;20203;-79
2021/01/31 09:08:05;;;;;;;26.57;15.03;;;9.90;99.90;;;;;;4987011;28;20255;-80
2021/01/31 09:10:41;;;;;;;25.57;15.53;;;10.00;99.90;;;;;;4987291;28;20198;-79
2021/01/31 09:13:26;;;;;;;28.97;14.97;;;10.10;99.90;;;;;;4975140;28;20201;-80
2021/01/31 09:16:09;;;;;;;26.70;15.33;;;10.10;99.90;;;;;;4982529;28;20285;-80
2021/01/31 09:18:40;;;;;;;25.77;15.20;;;10.10;99.90;;;;;;4976275;28;20204;-79
2021/01/31 09:21:29;;;;;;;26.30;14.10;;;10.10;99.90;;;;;;4983430;28;20243;-80
2021/01/31 09:24:04;;;;;;;25.07;15.10;;;10.10;99.90;;;;;;4951973;28;20212;-79
2021/01/31 09:26:31;;;;;;;22.53;13.30;;;10.00;99.90;;;;;;4974583;28;20206;-80
2021/01/31 09:29:00;;;;;;;23.03;14.17;;;10.00;99.90;;;;;;4988462;28;20224;-79
2021/01/31 09:31:52;;;;;;;22.37;13.47;;;9.90;99.90;;;;;;4974809;28;20206;-80
2021/01/31 09:34:24;;;;;;;23.93;14.33;;;9.90;99.90;;;;;;4971003;28;20589;-79
2021/01/31 09:37:05;;;;;;;29.57;15.60;;;9.90;99.90;;;;;;4974212;28;20694;-79
2021/01/31 09:39:33;;;;;;;32.87;16.33;;;9.90;99.90;;;;;;4974672;28;20252;-79
2021/01/31 09:42:00;;;;;;;30.63;15.93;;;9.90;99.90;;;;;;4979483;28;20297;-79
2021/01/31 09:44:28;;;;;;;41.97;16.80;;;9.90;99.90;;;;;;4985193;28;20217;-79
2021/01/31 09:46:55;;;;;;;41.40;16.77;;;9.80;99.90;;;;;;4977281;28;20236;-79
2021/01/31 09:49:25;;;;;;;46.90;16.53;;;9.70;99.90;;;;;;4973902;28;20252;-79
2021/01/31 09:51:53;;;;;;;31.20;16.10;;;9.70;99.90;;;;;;4973696;28;20361;-79
2021/01/31 09:54:22;;;;;;;25.97;15.13;;;9.80;99.90;;;;;;4982928;28;20208;-79
2021/01/31 09:56:52;;;;;;;22.07;13.30;;;9.80;99.90;;;;;;4981987;28;20243;-79
2021/01/31 09:59:23;;;;;;;22.43;13.30;;;9.90;99.90;;;;;;4981802;28;20216;-80
2021/01/31 10:01:51;;;;;;;20.70;13.10;;;9.90;99.90;;;;;;4982047;28;20313;-79
2021/01/31 10:04:24;;;;;;;19.97;12.73;;;10.00;99.90;;;;;;4993146;28;20213;-79
2021/01/31 10:06:57;;;;;;;21.07;13.10;;;10.00;99.90;;;;;;4980009;28;20241;-79
2021/01/31 10:09:32;;;;;;;23.40;14.23;;;10.10;99.90;;;;;;4978872;28;20280;-80
2021/01/31 10:12:25;;;;;;;22.00;13.30;;;10.30;99.90;;;;;;4981231;28;20200;-82
2021/01/31 10:14:53;;;;;;;22.43;12.40;;;10.20;99.90;;;;;;4978211;28;20280;-81
2021/01/31 10:17:31;;;;;;;21.77;12.80;;;10.40;99.90;;;;;;4985269;28;20244;-82
2021/01/31 10:20:41;;;;;;;20.30;12.30;;;10.40;99.90;;;;;;4989063;28;20698;-82
2021/01/31 10:23:14;;;;;;;18.30;11.90;;;10.50;99.90;;;;;;4961748;28;20238;-80
2021/01/31 10:25:42;;;;;;;19.30;11.87;;;10.40;99.90;;;;;;4976682;28;20248;-80
2021/01/31 10:28:11;;;;;;;17.50;11.17;;;10.40;99.90;;;;;;4973556;28;20250;-80
2021/01/31 10:30:42;;;;;;;19.33;11.17;;;10.50;99.90;;;;;;4977329;28;20230;-82
2021/01/31 10:33:30;;;;;;;19.53;11.30;;;10.50;99.90;;;;;;4981561;28;20253;-79
2021/01/31 10:35:57;;;;;;;18.03;11.20;;;10.60;99.90;;;;;;4972786;28;20226;-81
2021/01/31 10:38:29;;;;;;;19.37;12.30;;;10.70;99.90;;;;;;4980195;28;20288;-82
2021/01/31 10:40:57;;;;;;;16.27;10.43;;;10.70;99.90;;;;;;4977966;28;20677;-84
2021/01/31 10:43:24;;;;;;;15.40;9.17;;;10.60;99.90;;;;;;4980396;28;20226;-82
2021/01/31 10:45:51;;;;;;;14.50;9.33;;;10.50;99.90;;;;;;4973814;28;20218;-77
2021/01/31 10:48:17;;;;;;;16.40;9.53;;;10.50;99.90;;;;;;4973705;28;20716;-82
2021/01/31 10:50:44;;;;;;;16.67;9.63;;;10.50;99.90;;;;;;4972765;28;20233;-79
2021/01/31 10:53:11;;;;;;;16.87;10.67;;;10.50;99.90;;;;;;4972803;28;20665;-80
2021/01/31 10:55:38;;;;;;;17.93;9.67;;;10.60;99.90;;;;;;4973181;28;20242;-80
2021/01/31 10:58:05;;;;;;;16.50;9.53;;;10.70;99.90;;;;;;4981053;28;20280;-80
2021/01/31 11:00:31;;;;;;;16.07;9.87;;;10.70;99.90;;;;;;4972603;28;20265;-83
2021/01/31 11:02:57;;;;;;;14.80;8.70;;;10.70;99.90;;;;;;4973308;28;20723;-86
2021/01/31 11:05:24;;;;;;;14.73;8.53;;;10.60;99.90;;;;;;4989261;28;20291;-85
2021/01/31 11:07:51;;;;;;;14.00;9.00;;;10.60;99.90;;;;;;4982899;28;20668;-82
2021/01/31 11:10:18;;;;;;;14.20;8.40;;;10.60;99.90;;;;;;4973250;28;20206;-82
2021/01/31 11:12:45;;;;;;;15.03;8.97;;;10.50;99.90;;;;;;4973384;28;20739;-85
2021/01/31 11:15:13;;;;;;;14.37;8.93;;;10.60;99.90;;;;;;4973343;28;20638;-87
2021/01/31 11:17:40;;;;;;;13.97;8.70;;;10.60;99.90;;;;;;4970667;28;20630;-80
2021/01/31 11:20:08;;;;;;;13.97;8.40;;;10.60;99.90;;;;;;4973043;28;20300;-79
2021/01/31 11:22:35;;;;;;;12.57;8.17;;;10.50;99.90;;;;;;4975308;28;20233;-80
2021/01/31 11:25:02;;;;;;;13.80;8.50;;;10.40;99.90;;;;;;4974553;28;20198;-81
2021/01/31 11:27:29;;;;;;;14.37;9.10;;;10.50;99.90;;;;;;4980465;28;20344;-81
2021/01/31 11:29:56;;;;;;;14.20;8.77;;;10.70;99.90;;;;;;4972701;28;20198;-83
2021/01/31 11:32:23;;;;;;;13.40;8.43;;;10.80;99.90;;;;;;4983588;28;20666;-81
2021/01/31 11:34:50;;;;;;;12.03;8.33;;;10.80;99.90;;;;;;4983406;28;20238;-80
2021/01/31 11:37:16;;;;;;;12.87;8.33;;;10.80;99.90;;;;;;4973073;28;20246;-81
2021/01/31 11:39:43;;;;;;;13.63;9.13;;;10.80;99.90;;;;;;4980081;28;20237;-81
2021/01/31 11:42:09;;;;;;;13.03;8.63;;;10.70;99.90;;;;;;4977452;28;20214;-80
2021/01/31 11:44:36;;;;;;;14.33;9.03;;;10.50;99.90;;;;;;4975703;28;20639;-80
2021/01/31 11:47:03;;;;;;;14.10;8.43;;;10.40;99.90;;;;;;4973076;28;20229;-80
2021/01/31 11:49:29;;;;;;;12.40;8.77;;;10.40;99.90;;;;;;4973707;28;20233;-80
2021/01/31 11:51:56;;;;;;;14.80;9.43;;;10.40;99.90;;;;;;4977961;28;20739;-81
2021/01/31 11:54:22;;;;;;;15.73;9.83;;;10.50;99.90;;;;;;4980344;28;20244;-81
2021/01/31 11:56:49;;;;;;;15.90;9.70;;;10.70;99.90;;;;;;4976796;28;20241;-82
2021/01/31 11:59:15;;;;;;;16.03;9.63;;;10.70;99.90;;;;;;4972499;28;20705;-81
2021/01/31 12:01:42;;;;;;;14.30;9.03;;;10.70;99.90;;;;;;4974089;28;20234;-81
2021/01/31 12:04:09;;;;;;;11.57;7.20;;;10.70;99.90;;;;;;4975024;28;20684;-81
2021/01/31 12:06:35;;;;;;;10.37;6.27;;;10.70;99.90;;;;;;4978979;28;20714;-80
2021/01/31 12:09:02;;;;;;;9.03;6.17;;;10.70;99.90;;;;;;4979622;28;20285;-80
2021/01/31 12:11:29;;;;;;;8.47;6.07;;;10.80;99.90;;;;;;4982464;28;20277;-80
2021/01/31 12:13:56;;;;;;;7.13;5.07;;;10.80;99.90;;;;;;4984930;28;20288;-80
2021/01/31 12:16:22;;;;;;;7.80;4.60;;;10.90;99.90;;;;;;4988202;28;20248;-81
2021/01/31 12:18:49;;;;;;;6.30;4.27;;;11.00;99.90;;;;;;4984001;28;20289;-80
2021/01/31 12:21:16;;;;;;;6.07;4.73;;;11.00;99.90;;;;;;4987564;28;20309;-79
2021/01/31 12:23:43;;;;;;;6.33;5.23;;;11.20;99.90;;;;;;4976678;28;20620;-80
2021/01/31 12:26:10;;;;;;;7.10;4.50;;;11.20;99.90;;;;;;4991492;28;20711;-80
2021/01/31 12:28:36;;;;;;;5.70;4.30;;;11.20;99.90;;;;;;4975735;28;20234;-80
2021/01/31 12:31:03;;;;;;;7.60;4.40;;;11.00;99.90;;;;;;4977038;28;20207;-80
2021/01/31 12:33:29;;;;;;;4.50;3.67;;;11.10;99.90;;;;;;4978990;28;20254;-80
2021/01/31 12:35:55;;;;;;;5.47;3.83;;;11.00;99.90;;;;;;4974477;28;20265;-80
2021/01/31 12:38:23;;;;;;;6.13;3.67;;;10.90;99.90;;;;;;4980873;28;20702;-79
2021/01/31 12:40:49;;;;;;;5.40;4.20;;;10.80;99.90;;;;;;4991494;28;20746;-80
2021/01/31 12:43:16;;;;;;;5.37;3.90;;;10.70;99.90;;;;;;4982824;28;20229;-80
2021/01/31 12:45:42;;;;;;;5.20;4.40;;;10.70;99.90;;;;;;4993882;28;20299;-79
2021/01/31 12:48:09;;;;;;;6.53;4.50;;;10.70;99.90;;;;;;4974028;28;20586;-79
2021/01/31 12:50:35;;;;;;;5.60;3.80;;;10.60;99.90;;;;;;4965706;28;20668;-79
2021/01/31 12:53:02;;;;;;;6.07;3.83;;;10.60;99.90;;;;;;4982368;28;20225;-79
2021/01/31 12:55:29;;;;;;;5.00;3.93;;;10.60;99.90;;;;;;4976890;28;20642;-80
2021/01/31 12:57:55;;;;;;;5.93;4.00;;;10.60;99.90;;;;;;4975760;28;20237;-79
2021/01/31 13:00:49;;;;;;;5.87;4.13;;;10.60;99.90;;;;;;4980947;28;20252;-80
2021/01/31 13:03:18;;;;;;;6.00;4.17;;;10.60;99.90;;;;;;4975057;28;20272;-80
2021/01/31 13:05:45;;;;;;;7.07;4.60;;;10.50;99.90;;;;;;4980438;28;20318;-79
2021/01/31 13:08:11;;;;;;;5.40;4.27;;;10.60;99.90;;;;;;4974516;28;20237;-79
2021/01/31 13:10:39;;;;;;;5.77;4.20;;;10.60;99.90;;;;;;4979171;28;20243;-80
2021/01/31 13:13:06;;;;;;;8.30;4.80;;;10.60;99.90;;;;;;4982657;28;20706;-79
2021/01/31 13:15:32;;;;;;;6.87;5.17;;;10.70;99.90;;;;;;4978488;28;20234;-79
2021/01/31 13:17:59;;;;;;;6.43;4.63;;;10.70;99.90;;;;;;4980177;28;20285;-79
2021/01/31 13:20:26;;;;;;;7.47;4.70;;;10.80;99.90;;;;;;4973566;28;20194;-79
2021/01/31 13:22:53;;;;;;;6.40;4.87;;;10.80;99.90;;;;;;4974603;28;20253;-79
2021/01/31 13:25:21;;;;;;;5.83;4.47;;;10.90;99.90;;;;;;4982762;28;20225;-79